createdAt,value
2018-07-23T00:00:55.229Z,38.33
2018-07-23T00:05:51.913Z,39.33
2018-07-23T00:10:49.106Z,35.60
2018-07-23T00:15:46.121Z,40.17
2018-07-23T00:20:42.806Z,41.87
2018-07-23T00:25:39.787Z,41.77
2018-07-23T00:30:36.475Z,41.80
2018-07-23T00:35:33.378Z,41.90
2018-07-23T00:40:31.008Z,41.70
2018-07-23T00:45:27.787Z,42.60
2018-07-23T00:50:24.726Z,42.40
2018-07-23T00:55:21.516Z,40.67
2018-07-23T01:00:18.735Z,41.20
2018-07-23T01:05:15.444Z,42.10
2018-07-23T01:10:12.421Z,40.80
2018-07-23T01:15:09.141Z,40.90
2018-07-23T01:20:06.355Z,41.37
2018-07-23T01:25:03.378Z,42.57
2018-07-23T01:30:00.294Z,40.63
2018-07-23T01:34:57.282Z,41.30
2018-07-23T01:39:54.973Z,41.80
2018-07-23T01:44:51.893Z,40.93
2018-07-23T01:49:48.931Z,39.87
2018-07-23T01:54:45.633Z,40.33
2018-07-23T01:59:42.547Z,41.40
2018-07-23T02:04:39.850Z,43.77
2018-07-23T02:09:36.544Z,38.40
2018-07-23T02:14:33.448Z,42.30
2018-07-23T02:19:30.367Z,41.57
2018-07-23T02:24:27.473Z,42.03
2018-07-23T02:29:24.218Z,43.53
2018-07-23T02:34:21.201Z,41.17
2018-07-23T02:39:18.317Z,42.33
2018-07-23T02:44:15.485Z,40.17
2018-07-23T02:49:12.514Z,42.20
2018-07-23T02:54:09.250Z,40.17
2018-07-23T02:59:06.309Z,40.00
2018-07-23T03:04:03.071Z,42.33
2018-07-23T03:09:00.005Z,41.00
2018-07-23T03:13:56.846Z,40.33
2018-07-23T03:18:53.610Z,42.10
2018-07-23T03:23:50.557Z,40.20
2018-07-23T03:28:47.301Z,42.33
2018-07-23T03:33:44.201Z,42.63
2018-07-23T03:38:40.968Z,43.90
2018-07-23T03:43:37.522Z,40.97
2018-07-23T03:48:34.309Z,41.13
2018-07-23T03:53:31.153Z,39.17
2018-07-23T03:58:27.885Z,41.37
2018-07-23T04:03:24.934Z,39.93
2018-07-23T04:08:21.868Z,39.17
2018-07-23T04:13:18.871Z,38.93
2018-07-23T04:18:15.626Z,38.57
2018-07-23T04:23:12.448Z,40.90
2018-07-23T04:28:09.166Z,39.20
2018-07-23T04:33:06.155Z,38.50
2018-07-23T04:38:03.157Z,39.33
2018-07-23T04:42:59.869Z,38.37
2018-07-23T04:47:57.665Z,39.70
2018-07-23T04:52:54.385Z,40.77
2018-07-23T04:57:51.540Z,38.37
2018-07-23T05:02:48.267Z,37.93
2018-07-23T05:07:45.445Z,38.00
2018-07-23T05:12:42.318Z,37.80
2018-07-23T05:17:39.200Z,38.53
2018-07-23T05:22:35.882Z,35.67
2018-07-23T05:27:32.828Z,36.87
2018-07-23T05:32:29.511Z,37.77
2018-07-23T05:37:26.675Z,36.33
2018-07-23T05:42:23.418Z,35.50
2018-07-23T05:47:20.506Z,36.37
2018-07-23T05:52:17.222Z,37.00
2018-07-23T05:57:14.156Z,37.33
2018-07-23T06:02:11.628Z,38.67
2018-07-23T06:07:08.357Z,38.23
2018-07-23T06:12:05.429Z,40.33
2018-07-23T06:17:02.220Z,36.43
2018-07-23T06:21:59.164Z,38.10
2018-07-23T06:26:55.847Z,37.03
2018-07-23T06:31:52.997Z,35.97
2018-07-23T06:36:49.743Z,35.83
2018-07-23T06:41:46.781Z,35.50
2018-07-23T06:46:43.953Z,32.67
2018-07-23T06:51:41.021Z,31.53
2018-07-23T06:56:37.940Z,28.27
2018-07-23T07:01:34.875Z,29.07
2018-07-23T07:06:31.778Z,30.37
2018-07-23T07:11:28.986Z,26.57
2018-07-23T07:16:25.705Z,24.18
2018-07-23T07:21:22.867Z,22.27
2018-07-23T07:26:19.540Z,21.35
2018-07-23T07:31:16.724Z,20.75
2018-07-23T07:36:13.640Z,19.90
2018-07-23T07:41:10.583Z,18.48
2018-07-23T07:46:07.373Z,18.70
2018-07-23T07:51:04.281Z,18.60
2018-07-23T07:56:02.345Z,19.42
2018-07-23T08:00:59.315Z,17.48
2018-07-23T08:05:56.079Z,15.90
2018-07-23T08:10:53.047Z,14.93
2018-07-23T08:15:50.036Z,12.13
2018-07-23T08:20:46.997Z,12.28
2018-07-23T08:25:43.901Z,12.73
2018-07-23T08:30:40.838Z,14.07
2018-07-23T08:35:37.558Z,14.35
2018-07-23T08:40:34.502Z,13.78
2018-07-23T08:45:31.171Z,13.22
2018-07-23T08:50:28.136Z,12.78
2018-07-23T08:55:25.153Z,11.68
2018-07-23T09:00:24.418Z,12.03
2018-07-23T09:05:21.391Z,9.98
2018-07-23T09:10:18.293Z,9.25
2018-07-23T09:15:15.550Z,9.25
2018-07-23T09:20:12.577Z,9.40
2018-07-23T09:25:09.481Z,8.20
2018-07-23T09:30:09.175Z,8.08
2018-07-23T09:35:06.160Z,7.80
2018-07-23T09:40:02.885Z,8.65
2018-07-23T09:44:59.821Z,7.40
2018-07-23T09:49:56.665Z,8.38
2018-07-23T09:54:53.495Z,9.28
2018-07-23T09:59:50.445Z,8.85
2018-07-23T10:04:47.119Z,10.20
2018-07-23T10:09:43.966Z,10.60
2018-07-23T10:14:41.910Z,8.43
2018-07-23T10:19:38.722Z,8.75
2018-07-23T10:24:35.663Z,7.97
2018-07-23T10:29:32.812Z,8.55
2018-07-23T10:34:29.465Z,8.95
2018-07-23T10:39:26.451Z,7.97
2018-07-23T10:44:23.128Z,9.23
2018-07-23T10:49:20.330Z,8.80
2018-07-23T10:54:17.204Z,8.18
2018-07-23T10:59:14.173Z,7.42
2018-07-23T11:04:10.885Z,6.60
2018-07-23T11:09:07.776Z,6.12
2018-07-23T11:14:04.702Z,6.03
2018-07-23T11:19:02.108Z,5.80
2018-07-23T11:23:59.039Z,5.22
2018-07-23T11:28:55.978Z,4.90
2018-07-23T11:33:52.754Z,4.58
2018-07-23T11:38:49.842Z,5.20
2018-07-23T11:43:46.525Z,4.97
2018-07-23T11:48:43.493Z,4.58
2018-07-23T11:53:40.496Z,5.00
2018-07-23T11:58:37.194Z,5.10
2018-07-23T12:03:34.252Z,7.60
2018-07-23T12:08:31.448Z,17.35
2018-07-23T12:13:28.387Z,6.80
2018-07-23T12:18:26.236Z,5.75
2018-07-23T12:23:23.177Z,5.65
2018-07-23T12:28:19.957Z,5.33
2018-07-23T12:33:16.856Z,4.80
2018-07-23T12:38:13.982Z,4.35
2018-07-23T12:43:10.720Z,4.60
2018-07-23T12:48:07.764Z,4.70
2018-07-23T12:53:04.429Z,5.47
2018-07-23T12:58:02.304Z,5.45
2018-07-23T13:02:59.098Z,5.47
2018-07-23T13:07:55.841Z,6.03
2018-07-23T13:12:52.656Z,8.60
2018-07-23T13:17:49.727Z,7.03
2018-07-23T13:22:46.733Z,5.85
2018-07-23T13:27:43.733Z,5.67
2018-07-23T13:32:41.133Z,5.20
2018-07-23T13:37:37.983Z,5.30
2018-07-23T13:42:34.915Z,5.10
2018-07-23T13:47:31.944Z,5.10
2018-07-23T13:52:29.014Z,5.22
2018-07-23T13:57:25.925Z,5.20
2018-07-23T14:02:22.886Z,5.40
2018-07-23T14:07:20.037Z,4.97
2018-07-23T14:12:16.737Z,5.15
2018-07-23T14:17:13.620Z,5.95
2018-07-23T14:22:10.391Z,7.22
2018-07-23T14:27:07.550Z,7.78
2018-07-23T14:32:04.445Z,6.62
2018-07-23T14:37:02.269Z,6.80
2018-07-23T14:41:59.046Z,5.85
2018-07-23T14:46:56.577Z,6.17
2018-07-23T14:51:53.321Z,6.03
2018-07-23T14:56:50.308Z,6.47
2018-07-23T15:01:47.102Z,21.10
2018-07-23T15:06:44.065Z,7.20
2018-07-23T15:11:40.978Z,6.40
2018-07-23T15:16:37.796Z,6.62
2018-07-23T15:21:34.717Z,6.12
2018-07-23T15:26:31.610Z,6.53
2018-07-23T15:31:28.406Z,6.60
2018-07-23T15:36:25.350Z,6.08
2018-07-23T15:41:22.377Z,6.70
2018-07-23T15:46:19.417Z,6.60
2018-07-23T15:51:16.468Z,6.33
2018-07-23T15:56:13.286Z,11.90
2018-07-23T16:01:10.284Z,6.90
2018-07-23T16:06:06.974Z,7.72
2018-07-23T16:11:03.788Z,7.28
2018-07-23T16:16:00.850Z,7.62
2018-07-23T16:20:57.744Z,7.05
2018-07-23T16:25:54.493Z,7.40
2018-07-23T16:30:51.488Z,8.38
2018-07-23T16:35:48.384Z,6.97
2018-07-23T16:40:45.136Z,6.78
2018-07-23T16:45:43.294Z,6.92
2018-07-23T16:50:39.972Z,7.72
2018-07-23T16:55:37.294Z,7.17
2018-07-23T17:00:34.159Z,7.58
2018-07-23T17:05:31.127Z,6.90
2018-07-23T17:10:27.800Z,7.35
2018-07-23T17:15:24.801Z,7.05
2018-07-23T17:20:21.599Z,7.03
2018-07-23T17:25:18.713Z,7.10
2018-07-23T17:30:15.520Z,7.83
2018-07-23T17:35:12.642Z,7.62
2018-07-23T17:40:09.646Z,6.83
2018-07-23T17:45:06.467Z,7.45
2018-07-23T17:50:03.505Z,7.87
2018-07-23T17:55:00.858Z,7.42
2018-07-23T17:59:57.604Z,7.50
2018-07-23T18:04:54.565Z,8.20
2018-07-23T18:09:52.351Z,8.05
2018-07-23T18:14:49.272Z,8.68
2018-07-23T18:19:45.960Z,8.68
2018-07-23T18:24:42.909Z,8.85
2018-07-23T18:29:39.875Z,9.28
2018-07-23T18:34:36.588Z,9.70
2018-07-23T18:39:33.482Z,9.80
2018-07-23T18:44:30.674Z,9.93
2018-07-23T18:49:41.674Z,9.90
2018-07-23T18:54:39.088Z,11.20
2018-07-23T18:59:35.867Z,11.10
2018-07-23T19:04:32.735Z,11.33
2018-07-23T19:09:29.962Z,11.88
2018-07-23T19:14:27.504Z,11.60
2018-07-23T19:19:24.653Z,12.35
2018-07-23T19:24:21.374Z,12.33
2018-07-23T19:29:18.282Z,11.75
2018-07-23T19:34:15.150Z,12.90
2018-07-23T19:39:13.461Z,13.90
2018-07-23T19:44:10.614Z,13.78
2018-07-23T19:49:07.937Z,11.50
2018-07-23T19:54:05.303Z,13.13
2018-07-23T19:59:02.121Z,13.65
2018-07-23T20:03:59.143Z,13.95
2018-07-23T20:08:56.818Z,15.23
2018-07-23T20:13:53.843Z,14.65
2018-07-23T20:18:50.618Z,14.60
2018-07-23T20:23:47.758Z,15.00
2018-07-23T20:28:44.528Z,14.90
2018-07-23T20:33:41.376Z,15.43
2018-07-23T20:38:38.292Z,16.73
2018-07-23T20:43:35.117Z,16.75
2018-07-23T20:48:31.963Z,16.23
2018-07-23T20:53:28.747Z,17.10
2018-07-23T20:58:25.676Z,16.50
2018-07-23T21:03:22.614Z,17.17
2018-07-23T21:08:19.515Z,17.80
2018-07-23T21:13:16.952Z,18.15
2018-07-23T21:18:13.747Z,18.75
2018-07-23T21:23:10.583Z,17.95
2018-07-23T21:28:07.513Z,18.32
2018-07-23T21:33:04.340Z,17.20
2018-07-23T21:38:01.297Z,18.73
2018-07-23T21:42:58.320Z,18.90
2018-07-23T21:47:55.336Z,20.57
2018-07-23T21:52:51.995Z,18.37
2018-07-23T21:57:48.928Z,20.35
2018-07-23T22:02:45.694Z,20.45
2018-07-23T22:07:42.602Z,21.12
2018-07-23T22:12:39.069Z,21.52
2018-07-23T22:17:35.762Z,21.65
2018-07-23T22:22:32.717Z,21.35
2018-07-23T22:27:29.430Z,21.80
2018-07-23T22:32:26.555Z,22.20
2018-07-23T22:37:23.286Z,22.05
2018-07-23T22:42:20.476Z,21.40
2018-07-23T22:47:17.386Z,21.33
2018-07-23T22:52:14.210Z,22.83
2018-07-23T22:57:11.359Z,23.95
2018-07-23T23:02:08.056Z,23.00
2018-07-23T23:07:04.970Z,24.05
2018-07-23T23:12:02.066Z,22.77
2018-07-23T23:16:59.299Z,23.53
2018-07-23T23:21:56.357Z,25.03
2018-07-23T23:26:53.344Z,25.30
2018-07-23T23:31:50.139Z,26.37
2018-07-23T23:36:47.028Z,24.97
2018-07-23T23:41:43.735Z,24.90
2018-07-23T23:46:40.628Z,24.87
2018-07-23T23:51:37.452Z,25.97
2018-07-23T23:56:34.358Z,25.23
